Time;durP1;ratioP1;P1;durP2;ratioP2;P2;SDS_P1;SDS_P2;PMS_P1;PMS_P2;Temp;Humidity;BMP_temperature;BMP_pressure;BME280_temperature;BME280_humidity;BME280_pressure;Samples;Min_cycle;Max_cycle;Signal;HPM_P1;HPM_P2
2021/06/02 00:01:11;;;;;;;9.95;5.10;;;;;;;12.46;100.00;101384.13;5246861;28;20024;-85
2021/06/02 00:03:43;;;;;;;8.27;5.45;;;;;;;12.41;100.00;101384.63;5246596;28;20027;-85
2021/06/02 00:06:13;;;;;;;8.23;5.80;;;;;;;12.35;100.00;101385.28;5246614;28;20032;-85
2021/06/02 00:08:44;;;;;;;11.48;6.78;;;;;;;12.27;100.00;101387.09;5238860;28;20560;-86
2021/06/02 00:11:15;;;;;;;8.80;5.97;;;;;;;12.15;100.00;101383.88;5242134;28;20020;-85
2021/06/02 00:13:46;;;;;;;9.25;5.00;;;;;;;12.08;100.00;101382.84;5246279;28;20055;-85
2021/06/02 00:16:16;;;;;;;8.88;5.38;;;;;;;12.03;100.00;101383.31;5246647;28;20093;-85
2021/06/02 00:18:47;;;;;;;10.18;6.45;;;;;;;11.99;100.00;101376.59;5246570;28;20024;-85
2021/06/02 00:21:18;;;;;;;14.70;6.78;;;;;;;11.91;100.00;101379.25;5246446;28;20024;-85
2021/06/02 00:23:48;;;;;;;10.57;6.40;;;;;;;11.82;100.00;101374.84;5246517;28;20484;-85
2021/06/02 00:26:20;;;;;;;10.77;6.65;;;;;;;11.73;100.00;101375.78;5246054;28;20036;-85
2021/06/02 00:28:51;;;;;;;9.80;6.40;;;;;;;11.65;100.00;101380.13;5246128;28;20032;-85
2021/06/02 00:31:22;;;;;;;9.10;6.15;;;;;;;11.59;100.00;101378.06;5246154;28;20023;-85
2021/06/02 00:33:54;;;;;;;9.93;5.90;;;;;;;11.52;100.00;101371.66;5246289;28;20039;-85
2021/06/02 00:36:26;;;;;;;10.13;5.78;;;;;;;11.50;100.00;101375.50;5245897;28;20036;-85
2021/06/02 00:38:58;;;;;;;10.52;5.80;;;;;;;11.47;100.00;101367.75;5245649;28;20020;-85
2021/06/02 00:41:29;;;;;;;12.38;5.90;;;;;;;11.47;100.00;101370.44;5246204;28;20522;-85
2021/06/02 00:44:01;;;;;;;9.73;6.75;;;;;;;11.48;100.00;101369.44;5246084;28;20048;-85
2021/06/02 00:46:36;;;;;;;15.05;6.53;;;;;;;11.49;100.00;101371.94;5245711;28;20475;-85
2021/06/02 00:49:10;;;;;;;12.50;6.78;;;;;;;11.48;100.00;101375.66;5245495;28;20059;-85
2021/06/02 00:51:40;;;;;;;11.07;6.65;;;;;;;11.44;100.00;101368.91;5245558;28;20030;-85
2021/06/02 00:54:11;;;;;;;8.88;6.25;;;;;;;11.37;100.00;101367.88;5246042;28;20103;-85
2021/06/02 00:56:48;;;;;;;13.38;7.13;;;;;;;11.33;100.00;101372.69;5246020;28;20024;-85
2021/06/02 00:59:27;;;;;;;14.30;8.15;;;;;;;11.26;100.00;101371.66;5245785;28;20021;-85
2021/06/02 01:02:00;;;;;;;11.77;7.25;;;;;;;11.20;100.00;101371.47;5245924;28;20040;-85
2021/06/02 01:04:30;;;;;;;11.10;7.10;;;;;;;11.15;100.00;101370.09;5245923;28;20021;-85
2021/06/02 01:07:02;;;;;;;14.38;7.13;;;;;;;11.07;100.00;101367.31;5246019;28;20097;-85
2021/06/02 01:09:34;;;;;;;9.73;6.00;;;;;;;10.99;100.00;101359.19;5245438;28;20104;-85
2021/06/02 01:12:06;;;;;;;11.75;6.97;;;;;;;11.00;100.00;101360.06;5245859;28;20539;-85
2021/06/02 01:14:37;;;;;;;10.55;8.07;;;;;;;10.97;100.00;101365.75;5245625;28;20403;-85
2021/06/02 01:17:12;;;;;;;13.50;7.68;;;;;;;10.96;100.00;101356.84;5261399;28;20048;-85
2021/06/02 01:19:44;;;;;;;14.52;7.10;;;;;;;10.91;100.00;101355.63;5246150;28;20494;-85
2021/06/02 01:22:15;;;;;;;12.55;7.68;;;;;;;10.89;100.00;101358.44;5246244;28;20060;-85
2021/06/02 01:24:46;;;;;;;12.40;7.75;;;;;;;10.84;100.00;101350.91;5245936;28;20025;-85
2021/06/02 01:27:17;;;;;;;15.57;9.35;;;;;;;10.78;100.00;101354.19;5245864;28;20039;-85
2021/06/02 01:29:50;;;;;;;12.55;7.38;;;;;;;10.72;100.00;101352.13;5261210;28;20039;-85
2021/06/02 01:32:44;;;;;;;12.52;8.00;;;;;;;10.78;100.00;101350.66;5245848;28;20035;-84
2021/06/02 01:35:54;;;;;;;13.48;8.43;;;;;;;10.82;100.00;101354.72;5245078;28;20063;-85
2021/06/02 01:38:53;;;;;;;13.65;8.23;;;;;;;10.77;100.00;101347.13;5245874;28;20074;-84
2021/06/02 01:41:29;;;;;;;14.32;8.75;;;;;;;10.68;100.00;101357.94;5245053;28;20599;-85
2021/06/02 01:44:30;;;;;;;12.68;8.32;;;;;;;10.62;100.00;101352.19;5246110;28;20029;-85
2021/06/02 01:47:20;;;;;;;14.95;9.25;;;;;;;10.60;100.00;101361.41;5245161;28;20027;-85
2021/06/02 01:50:14;;;;;;;16.65;9.45;;;;;;;10.55;100.00;101356.50;5245216;28;20044;-85
2021/06/02 01:53:06;;;;;;;11.32;7.65;;;;;;;10.51;100.00;101359.66;5244880;28;20502;-85
2021/06/02 01:56:04;;;;;;;16.00;8.57;;;;;;;10.48;100.00;101359.94;5245422;28;20031;-85
2021/06/02 01:59:12;;;;;;;16.52;8.98;;;;;;;10.42;100.00;101361.41;5245611;28;20062;-84
2021/06/02 02:02:41;;;;;;;16.27;10.02;;;;;;;10.36;100.00;101362.84;5245032;28;20495;-85
2021/06/02 02:05:43;;;;;;;15.25;8.98;;;;;;;10.27;100.00;101354.88;5247736;28;20020;-85
2021/06/02 02:08:42;;;;;;;16.70;9.32;;;;;;;10.25;100.00;101354.19;5250016;28;20031;-85
2021/06/02 02:11:37;;;;;;;17.55;10.18;;;;;;;10.19;100.00;101358.31;5249831;28;20594;-85
2021/06/02 02:14:21;;;;;;;18.90;10.55;;;;;;;10.16;100.00;101361.28;5250392;28;20503;-84
2021/06/02 02:17:00;;;;;;;19.27;10.50;;;;;;;10.09;100.00;101370.91;5250120;28;20028;-85
2021/06/02 02:19:53;;;;;;;15.88;9.20;;;;;;;10.04;100.00;101366.00;5250315;28;20508;-84
2021/06/02 02:22:30;;;;;;;18.23;9.63;;;;;;;10.02;100.00;101364.47;5250024;28;20032;-85
2021/06/02 02:25:04;;;;;;;14.00;9.43;;;;;;;10.02;100.00;101362.63;5249808;28;20028;-85
2021/06/02 02:28:09;;;;;;;18.50;10.07;;;;;;;10.01;100.00;101357.41;5248798;28;20025;-84
2021/06/02 02:30:51;;;;;;;17.55;11.30;;;;;;;9.94;100.00;101359.00;5250420;28;20021;-85
2021/06/02 02:33:44;;;;;;;20.50;10.90;;;;;;;9.86;100.00;101352.56;5249457;28;20029;-84
2021/06/02 02:36:20;;;;;;;17.38;10.52;;;;;;;9.82;100.00;101353.84;5249739;28;20037;-85
2021/06/02 02:38:55;;;;;;;14.45;9.95;;;;;;;9.80;100.00;101352.31;5250492;28;20044;-84
2021/06/02 02:41:45;;;;;;;18.70;9.77;;;;;;;9.76;100.00;101356.28;5250212;28;20039;-85
2021/06/02 02:44:31;;;;;;;19.67;10.40;;;;;;;9.71;100.00;101359.41;5249931;28;20491;-84
2021/06/02 02:47:11;;;;;;;18.40;11.38;;;;;;;9.67;100.00;101359.84;5249448;28;20548;-84
2021/06/02 02:49:53;;;;;;;20.15;10.32;;;;;;;9.61;100.00;101355.94;5249844;28;20024;-85
2021/06/02 02:52:49;;;;;;;25.95;10.73;;;;;;;9.57;100.00;101350.00;5249396;28;20472;-85
2021/06/02 02:55:38;;;;;;;18.02;10.50;;;;;;;9.53;100.00;101359.31;5247415;28;20021;-84
2021/06/02 02:58:26;;;;;;;21.52;10.32;;;;;;;9.50;100.00;101362.31;5248497;28;20021;-84
2021/06/02 03:01:04;;;;;;;18.92;10.35;;;;;;;9.49;100.00;101363.31;5249350;28;20025;-84
2021/06/02 03:03:43;;;;;;;15.45;9.25;;;;;;;9.47;100.00;101362.59;5249123;28;20446;-84
2021/06/02 03:06:23;;;;;;;15.68;10.35;;;;;;;9.46;100.00;101360.91;5251455;28;20472;-84
2021/06/02 03:08:53;;;;;;;22.83;11.32;;;;;;;9.38;100.00;101368.81;5248409;28;20104;-84
2021/06/02 03:11:33;;;;;;;24.95;12.23;;;;;;;9.29;100.00;101365.22;5248461;28;20571;-84
2021/06/02 03:14:11;;;;;;;16.85;9.73;;;;;;;9.24;100.00;101369.31;5248479;28;20024;-83
2021/06/02 03:16:49;;;;;;;16.00;10.13;;;;;;;9.32;100.00;101372.09;5248076;28;20035;-84
2021/06/02 03:19:32;;;;;;;18.23;11.60;;;;;;;9.30;100.00;101363.38;5248064;28;20020;-84
2021/06/02 03:22:04;;;;;;;20.38;12.55;;;;;;;9.20;100.00;101370.59;5248081;28;20107;-84
2021/06/02 03:24:48;;;;;;;22.10;12.63;;;;;;;9.12;100.00;101368.63;5248202;28;20024;-84
2021/06/02 03:27:29;;;;;;;18.73;11.70;;;;;;;9.14;100.00;101368.50;5247618;28;20052;-84
2021/06/02 03:30:12;;;;;;;21.75;13.05;;;;;;;9.10;100.00;101372.44;5248267;28;20031;-84
2021/06/02 03:32:55;;;;;;;26.25;13.77;;;;;;;9.03;100.00;101367.63;5247685;28;20032;-84
2021/06/02 03:35:44;;;;;;;17.02;10.40;;;;;;;8.98;100.00;101367.22;5247746;28;20033;-84
2021/06/02 03:38:39;;;;;;;19.30;10.68;;;;;;;8.98;100.00;101369.06;5247263;28;20024;-84
2021/06/02 03:41:35;;;;;;;20.33;11.23;;;;;;;8.93;100.00;101369.47;5235035;28;20028;-84
2021/06/02 03:44:27;;;;;;;21.70;11.70;;;;;;;8.94;100.00;101365.00;5247279;28;20551;-84
2021/06/02 03:47:04;;;;;;;22.15;11.48;;;;;;;9.04;100.00;101372.03;5250192;28;20021;-84
2021/06/02 03:49:55;;;;;;;25.38;13.73;;;;;;;9.12;100.00;101368.63;5249422;28;20024;-84
2021/06/02 03:52:43;;;;;;;24.85;13.30;;;;;;;9.12;100.00;101365.09;5249140;28;20115;-84
2021/06/02 03:55:29;;;;;;;25.83;12.85;;;;;;;9.08;100.00;101367.22;5249974;28;20017;-84
2021/06/02 03:58:08;;;;;;;24.98;13.05;;;;;;;9.05;100.00;101360.31;5248424;28;20087;-84
2021/06/02 04:00:48;;;;;;;22.02;12.88;;;;;;;9.01;100.00;101361.59;5250033;28;20028;-84
2021/06/02 04:03:25;;;;;;;19.98;11.93;;;;;;;9.01;100.00;101361.59;5249666;28;20319;-84
2021/06/02 04:06:20;;;;;;;20.48;12.13;;;;;;;9.06;100.00;101362.00;5249614;28;20025;-84
2021/06/02 04:08:58;;;;;;;23.17;13.02;;;;;;;9.15;100.00;101360.31;5249187;28;20024;-84
2021/06/02 04:11:41;;;;;;;24.20;13.48;;;;;;;9.20;100.00;101352.69;5249741;28;20491;-84
2021/06/02 04:14:28;;;;;;;27.75;13.32;;;;;;;9.24;100.00;101361.28;5249245;28;20055;-84
2021/06/02 04:17:00;;;;;;;27.85;13.85;;;;;;;9.27;100.00;101352.94;5237450;28;20049;-84
2021/06/02 04:19:32;;;;;;;23.58;12.45;;;;;;;9.28;100.00;101360.81;5248484;28;20384;-84
2021/06/02 04:22:05;;;;;;;25.25;12.45;;;;;;;9.31;100.00;101360.53;5249378;28;20016;-84
2021/06/02 04:24:37;;;;;;;26.98;13.93;;;;;;;9.33;100.00;101355.88;5249140;28;20032;-84
2021/06/02 04:27:08;;;;;;;41.25;14.35;;;;;;;9.45;100.00;101361.06;5248191;28;20032;-84
2021/06/02 04:29:39;;;;;;;27.08;13.88;;;;;;;9.52;100.00;101357.66;5248997;28;20029;-84
2021/06/02 04:32:09;;;;;;;25.77;12.50;;;;;;;9.60;100.00;101357.75;5249076;28;20028;-84
2021/06/02 04:34:41;;;;;;;22.63;12.82;;;;;;;9.67;100.00;101359.84;5248381;28;20025;-84
2021/06/02 04:37:12;;;;;;;20.92;12.43;;;;;;;9.71;100.00;101355.88;5248763;28;20025;-85
2021/06/02 04:39:43;;;;;;;21.00;11.38;;;;;;;9.76;100.00;101359.81;5248219;28;20025;-84
2021/06/02 04:42:14;;;;;;;24.92;12.30;;;;;;;9.84;100.00;101361.75;5248489;28;20035;-84
2021/06/02 04:44:49;;;;;;;21.10;12.35;;;;;;;9.93;100.00;101355.47;5248074;28;20032;-85
2021/06/02 04:47:20;;;;;;;35.30;13.52;;;;;;;10.00;100.00;101361.94;5246786;28;20036;-85
2021/06/02 04:49:59;;;;;;;25.08;13.75;;;;;;;10.10;100.00;101354.69;5248376;28;20253;-84
2021/06/02 04:53:05;;;;;;;24.02;12.93;;;;;;;10.21;100.00;101360.81;5249010;28;20043;-84
2021/06/02 04:55:55;;;;;;;23.67;12.05;;;;;;;10.37;100.00;101367.22;5247351;28;20036;-85
2021/06/02 04:58:40;;;;;;;22.98;13.35;;;;;;;10.49;100.00;101361.63;5248017;28;20029;-84
2021/06/02 05:01:35;;;;;;;29.00;13.85;;;;;;;10.66;100.00;101373.38;5248497;28;20028;-84
2021/06/02 05:04:14;;;;;;;25.80;14.18;;;;;;;10.80;100.00;101362.94;5246917;28;20028;-84
2021/06/02 05:07:22;;;;;;;26.77;13.98;;;;;;;11.06;100.00;101364.81;5248355;28;20020;-85
2021/06/02 05:10:13;;;;;;;24.33;13.63;;;;;;;11.34;100.00;101355.56;5247673;28;20028;-84
2021/06/02 05:12:58;;;;;;;20.38;12.63;;;;;;;11.57;100.00;101363.09;5247838;28;20024;-84
2021/06/02 05:16:10;;;;;;;21.75;13.27;;;;;;;11.85;100.00;101361.94;5247453;28;20024;-85
2021/06/02 05:18:45;;;;;;;21.67;12.15;;;;;;;12.14;100.00;101363.34;5236373;28;20029;-85
2021/06/02 05:22:05;;;;;;;24.23;12.07;;;;;;;12.60;100.00;101367.34;5246072;28;20029;-85
2021/06/02 05:24:55;;;;;;;17.55;11.05;;;;;;;14.94;100.00;101359.53;5246295;28;20361;-84
2021/06/02 05:27:52;;;;;;;15.27;9.27;;;;;;;17.72;100.00;101367.28;5245150;28;20024;-85
2021/06/02 05:30:49;;;;;;;14.10;8.32;;;;;;;19.47;100.00;101370.97;5244858;28;20032;-84
2021/06/02 05:33:38;;;;;;;14.07;7.95;;;;;;;20.97;79.51;101377.00;5235088;28;20025;-84
2021/06/02 05:36:42;;;;;;;13.68;7.70;;;;;;;21.83;69.31;101381.63;5244989;28;20032;-85
2021/06/02 05:39:30;;;;;;;14.52;7.97;;;;;;;22.55;61.44;101384.53;5244495;28;20067;-85
2021/06/02 05:42:15;;;;;;;11.90;7.15;;;;;;;23.40;56.78;101387.78;5245174;28;20029;-85
2021/06/02 05:45:00;;;;;;;10.93;6.83;;;;;;;23.98;55.42;101373.19;5244880;28;20462;-85
2021/06/02 05:47:49;;;;;;;10.15;6.20;;;;;;;24.77;48.80;101384.34;5245016;28;20487;-85
2021/06/02 05:50:27;;;;;;;10.57;6.70;;;;;;;24.56;49.47;101382.31;5244749;28;20040;-85
2021/06/02 05:53:32;;;;;;;14.60;6.25;;;;;;;24.80;48.89;101383.03;5245522;28;20025;-85
2021/06/02 05:56:04;;;;;;;14.93;6.50;;;;;;;24.80;48.48;101385.78;5234915;28;20032;-85
2021/06/02 05:59:01;;;;;;;10.23;6.15;;;;;;;25.47;45.73;101376.69;5245142;28;20093;-85
2021/06/02 06:01:38;;;;;;;11.88;5.97;;;;;;;25.01;46.19;101375.97;5244621;28;20028;-86
2021/06/02 06:04:31;;;;;;;9.27;6.50;;;;;;;25.28;45.74;101382.47;5244880;28;20092;-87
2021/06/02 06:07:20;;;;;;;9.52;5.43;;;;;;;26.37;41.83;101375.38;5245081;28;20086;-85
2021/06/02 06:10:10;;;;;;;9.05;5.70;;;;;;;25.97;42.73;101375.75;5230722;28;20021;-85
2021/06/02 06:13:15;;;;;;;9.82;5.85;;;;;;;25.93;44.21;101380.09;5245263;28;20424;-86
2021/06/02 06:16:18;;;;;;;9.88;5.70;;;;;;;25.67;43.81;101376.16;5235918;28;20150;-86
2021/06/02 06:18:53;;;;;;;7.85;5.18;;;;;;;26.57;42.58;101377.56;5235214;28;20046;-85
2021/06/02 06:22:03;;;;;;;8.80;5.47;;;;;;;26.21;43.83;101376.31;5260015;28;20043;-85
2021/06/02 06:24:40;;;;;;;11.90;5.90;;;;;;;26.16;44.55;101379.84;5244773;28;20240;-86
2021/06/02 06:27:19;;;;;;;7.70;5.30;;;;;;;26.41;42.57;101382.03;5244698;28;20028;-85
2021/06/02 06:29:58;;;;;;;6.07;4.45;;;;;;;27.13;38.26;101375.31;5231731;28;20048;-85
2021/06/02 06:32:30;;;;;;;9.02;4.93;;;;;;;26.19;41.25;101364.72;5244530;28;20039;-85
2021/06/02 06:35:03;;;;;;;9.45;4.80;;;;;;;26.81;40.68;101367.88;5246069;28;20523;-85
2021/06/02 06:37:39;;;;;;;10.88;4.55;;;;;;;25.78;42.90;101364.25;5244366;28;20028;-85
2021/06/02 06:40:14;;;;;;;11.02;4.55;;;;;;;25.62;41.85;101365.91;5244630;28;20503;-85
2021/06/02 06:42:50;;;;;;;8.80;4.63;;;;;;;25.10;43.42;101362.66;5244895;28;20472;-85
2021/06/02 06:45:25;;;;;;;6.45;4.53;;;;;;;24.41;44.51;101360.91;5244053;28;20394;-85
2021/06/02 06:47:58;;;;;;;6.32;4.32;;;;;;;23.85;47.74;101364.44;5244475;28;20386;-85
2021/06/02 06:50:30;;;;;;;4.78;4.03;;;;;;;23.30;48.08;101365.66;5245601;28;20546;-85
2021/06/02 06:53:03;;;;;;;10.05;4.45;;;;;;;22.97;49.22;101366.22;5248372;28;20073;-85
2021/06/02 06:55:34;;;;;;;6.90;4.65;;;;;;;22.62;52.84;101369.69;5248353;28;20020;-85
2021/06/02 06:58:07;;;;;;;8.15;4.55;;;;;;;22.46;51.02;101370.34;5247856;28;20035;-85
2021/06/02 07:00:39;;;;;;;10.52;5.07;;;;;;;22.06;55.84;101370.84;5247957;28;20480;-85
2021/06/02 07:03:11;;;;;;;6.10;4.10;;;;;;;21.74;58.03;101362.00;5247858;28;20040;-85
2021/06/02 07:05:43;;;;;;;8.48;4.95;;;;;;;21.26;58.88;101365.41;5248103;28;20029;-85
2021/06/02 07:08:14;;;;;;;6.18;4.40;;;;;;;21.46;56.20;101362.50;5247252;28;20020;-85
2021/06/02 07:10:44;;;;;;;6.47;4.43;;;;;;;21.43;61.26;101363.78;5247572;28;20082;-85
2021/06/02 07:13:16;;;;;;;10.50;5.28;;;;;;;21.31;69.83;101354.69;5247924;28;20024;-85
2021/06/02 07:15:46;;;;;;;10.50;4.70;;;;;;;21.38;70.16;101360.06;5247692;28;20131;-85
2021/06/02 07:18:20;;;;;;;10.75;4.60;;;;;;;21.66;66.60;101359.56;5247785;28;20024;-85
2021/06/02 07:20:52;;;;;;;8.27;4.57;;;;;;;21.71;66.95;101360.56;5247089;28;20024;-85
2021/06/02 07:23:23;;;;;;;7.20;3.90;;;;;;;21.66;66.59;101368.59;5247786;28;20040;-85
2021/06/02 07:25:54;;;;;;;5.60;4.13;;;;;;;21.88;60.43;101366.22;5247471;28;20060;-85
2021/06/02 07:28:34;;;;;;;8.27;4.22;;;;;;;22.07;68.27;101355.28;5263215;28;20059;-84
2021/06/02 07:31:07;;;;;;;5.63;3.95;;;;;;;22.34;66.08;101364.84;5247832;28;20499;-84
2021/06/02 07:33:37;;;;;;;7.30;4.53;;;;;;;22.60;57.16;101369.09;5247354;28;20078;-85
2021/06/02 07:36:08;;;;;;;6.28;4.18;;;;;;;22.65;57.57;101371.13;5247515;28;20040;-85
2021/06/02 07:38:40;;;;;;;27.80;4.50;;;;;;;22.77;55.67;101354.75;5248181;28;20020;-85
2021/06/02 07:41:11;;;;;;;10.27;4.63;;;;;;;22.84;54.87;101355.44;5248127;28;20020;-84
2021/06/02 07:43:41;;;;;;;12.27;3.83;;;;;;;23.00;53.10;101352.91;5247527;28;20029;-85
2021/06/02 07:46:12;;;;;;;6.75;3.90;;;;;;;22.97;54.69;101345.16;5247173;28;20107;-85
2021/06/02 07:48:42;;;;;;;8.88;4.00;;;;;;;23.07;55.37;101358.25;5248653;28;20480;-85
2021/06/02 07:51:13;;;;;;;5.40;3.88;;;;;;;23.39;54.93;101347.78;5258289;28;20056;-84
2021/06/02 07:53:43;;;;;;;6.60;3.13;;;;;;;23.56;51.23;101358.84;5271275;28;20090;-84
2021/06/02 07:56:14;;;;;;;9.27;3.42;;;;;;;23.59;52.22;101355.63;5286893;28;20024;-84
2021/06/02 07:58:44;;;;;;;6.78;3.72;;;;;;;23.73;50.70;101358.97;5271299;28;20074;-84
2021/06/02 08:01:15;;;;;;;6.50;3.38;;;;;;;23.78;51.73;101356.34;5270667;28;20024;-84
2021/06/02 08:03:45;;;;;;;8.48;4.10;;;;;;;23.89;51.24;101358.22;5271274;28;20036;-84
2021/06/02 08:06:16;;;;;;;7.82;3.80;;;;;;;24.24;51.25;101349.84;5255880;28;20020;-85
2021/06/02 08:08:47;;;;;;;6.35;3.50;;;;;;;24.36;48.23;101351.78;5247191;28;20102;-85
2021/06/02 08:11:17;;;;;;;9.65;3.55;;;;;;;24.33;46.94;101352.22;5245629;28;20032;-85
2021/06/02 08:13:48;;;;;;;8.00;4.32;;;;;;;24.33;49.25;101350.31;5247047;28;20105;-85
2021/06/02 08:16:19;;;;;;;9.77;3.55;;;;;;;24.36;51.92;101351.78;5247296;28;20032;-85
2021/06/02 08:18:51;;;;;;;5.90;3.20;;;;;;;24.51;52.03;101354.78;5247475;28;20028;-84
2021/06/02 08:21:21;;;;;;;9.18;3.60;;;;;;;24.52;50.75;101345.47;5249410;28;20020;-85
2021/06/02 08:23:52;;;;;;;6.22;3.50;;;;;;;24.94;46.50;101345.09;5250061;28;20495;-84
2021/06/02 08:26:22;;;;;;;6.32;3.80;;;;;;;25.08;46.11;101340.97;5250169;28;20103;-85
2021/06/02 08:28:56;;;;;;;6.90;3.22;;;;;;;25.26;47.41;101346.19;5248393;28;20024;-85
2021/06/02 08:31:26;;;;;;;9.52;3.40;;;;;;;25.53;47.22;101351.78;5233953;28;20476;-85
2021/06/02 08:33:59;;;;;;;5.28;3.25;;;;;;;25.72;43.62;101354.25;5247521;28;20054;-85
2021/06/02 08:36:31;;;;;;;10.55;3.80;;;;;;;25.99;43.81;101357.91;5248588;28;20047;-85
2021/06/02 08:39:05;;;;;;;7.28;3.22;;;;;;;26.06;45.16;101364.03;5247666;28;20028;-85
2021/06/02 08:41:38;;;;;;;5.53;3.40;;;;;;;26.20;40.25;101363.63;5247758;28;20483;-85
2021/06/02 08:44:09;;;;;;;4.93;3.17;;;;;;;26.24;41.80;101357.34;5247303;28;20048;-85
2021/06/02 08:46:40;;;;;;;6.70;3.70;;;;;;;26.21;43.97;101357.06;5247343;28;20052;-85
2021/06/02 08:49:12;;;;;;;4.80;3.33;;;;;;;26.51;44.91;101362.91;5249264;28;20025;-84
2021/06/02 08:51:43;;;;;;;9.80;3.30;;;;;;;26.81;41.94;101364.28;5247532;28;20024;-85
2021/06/02 08:54:14;;;;;;;6.80;3.17;;;;;;;26.69;41.16;101358.13;5262159;28;20286;-85
2021/06/02 08:56:44;;;;;;;4.78;3.10;;;;;;;26.69;40.13;101356.19;5247103;28;20077;-85
2021/06/02 08:59:17;;;;;;;8.25;2.65;;;;;;;26.72;41.16;101352.94;5246757;28;20461;-85
2021/06/02 09:01:49;;;;;;;5.32;2.95;;;;;;;26.75;43.57;101354.31;5247056;28;20032;-85
2021/06/02 09:04:20;;;;;;;3.85;2.70;;;;;;;26.84;41.63;101355.50;5238259;28;20031;-85
2021/06/02 09:06:51;;;;;;;5.68;3.15;;;;;;;26.95;41.17;101356.41;5247063;28;20028;-85
2021/06/02 09:09:23;;;;;;;3.53;2.60;;;;;;;26.63;40.83;101348.97;5246315;28;20412;-85
2021/06/02 09:11:53;;;;;;;6.20;2.42;;;;;;;26.25;41.18;101352.69;5246908;28;20025;-85
2021/06/02 09:14:30;;;;;;;3.72;2.83;;;;;;;26.57;41.04;101350.88;5246043;28;20024;-85
2021/06/02 09:17:03;;;;;;;8.70;2.65;;;;;;;26.95;41.11;101342.63;5247259;28;20032;-85
2021/06/02 09:19:38;;;;;;;3.38;2.60;;;;;;;26.99;39.25;101352.84;5246692;28;20020;-84
2021/06/02 09:22:12;;;;;;;7.60;2.90;;;;;;;27.02;41.04;101346.84;5251939;28;20021;-85
2021/06/02 09:24:48;;;;;;;4.30;2.45;;;;;;;27.22;36.51;101339.84;5246161;28;20037;-85
2021/06/02 09:27:40;;;;;;;3.95;2.72;;;;;;;27.24;38.96;101341.22;5247222;28;20028;-85
2021/06/02 09:30:14;;;;;;;8.70;2.83;;;;;;;27.40;41.73;101341.31;5246031;28;20036;-85
2021/06/02 09:32:53;;;;;;;4.43;2.63;;;;;;;27.55;37.60;101342.22;5246736;28;20171;-85
2021/06/02 09:35:42;;;;;;;5.63;2.35;;;;;;;27.63;36.81;101341.72;5246671;28;20127;-85
2021/06/02 09:38:24;;;;;;;3.88;2.40;;;;;;;27.89;39.26;101341.88;5233883;28;20111;-85
2021/06/02 09:40:56;;;;;;;5.13;2.45;;;;;;;28.31;36.55;101338.94;5245070;28;20526;-85
2021/06/02 09:43:35;;;;;;;5.13;2.55;;;;;;;28.41;34.17;101340.09;5245312;28;20059;-85
2021/06/02 09:46:15;;;;;;;4.05;2.13;;;;;;;28.34;34.05;101338.44;5235319;28;20025;-85
2021/06/02 09:48:46;;;;;;;4.07;2.25;;;;;;;28.31;33.46;101330.66;5244538;28;20033;-85
2021/06/02 09:51:38;;;;;;;7.30;2.40;;;;;;;28.35;32.06;101334.56;5244932;28;20020;-85
2021/06/02 09:54:08;;;;;;;2.80;2.38;;;;;;;28.26;33.81;101340.88;5248478;28;20025;-84
2021/06/02 09:56:41;;;;;;;9.75;2.40;;;;;;;28.07;33.31;101344.16;5246438;28;20031;-84
2021/06/02 09:59:13;;;;;;;8.32;2.40;;;;;;;27.99;35.23;101336.38;5247456;28;20063;-85
2021/06/02 10:01:52;;;;;;;5.00;2.58;;;;;;;28.28;33.36;101335.94;5245023;28;20028;-85
2021/06/02 10:04:39;;;;;;;4.93;2.30;;;;;;;28.48;33.08;101337.91;5236569;28;20047;-85
2021/06/02 10:07:19;;;;;;;6.35;2.35;;;;;;;28.62;32.70;101330.75;5244987;28;20029;-85
2021/06/02 10:09:51;;;;;;;4.43;2.53;;;;;;;28.69;33.90;101324.97;5243947;28;20039;-85
2021/06/02 10:12:22;;;;;;;5.72;2.58;;;;;;;28.70;32.49;101332.94;5243800;28;20035;-85
2021/06/02 10:14:55;;;;;;;5.25;1.80;;;;;;;28.52;35.10;101326.06;5244395;28;20028;-85
2021/06/02 10:17:29;;;;;;;5.03;2.15;;;;;;;28.87;31.12;101327.16;5244950;28;20020;-85
2021/06/02 10:20:09;;;;;;;4.03;2.20;;;;;;;28.86;29.32;101325.50;5244204;28;20484;-85
2021/06/02 10:22:41;;;;;;;4.47;2.03;;;;;;;29.04;29.67;101316.69;5244933;28;20192;-85
2021/06/02 10:25:12;;;;;;;4.45;1.80;;;;;;;29.24;30.42;101320.50;5245507;28;20024;-85
2021/06/02 10:27:44;;;;;;;4.50;2.40;;;;;;;29.16;33.57;101317.19;5248634;28;20020;-85
2021/06/02 10:30:15;;;;;;;4.53;2.38;;;;;;;28.94;31.71;101311.16;5248499;28;20476;-85
2021/06/02 10:32:45;;;;;;;4.63;2.20;;;;;;;29.06;32.68;101316.38;5248408;28;20623;-85
2021/06/02 10:35:16;;;;;;;6.93;2.25;;;;;;;29.38;31.05;101311.34;5248298;28;20549;-86
2021/06/02 10:37:47;;;;;;;7.70;1.95;;;;;;;29.67;31.16;101311.56;5248669;28;20028;-85
2021/06/02 10:40:22;;;;;;;6.78;2.08;;;;;;;29.48;29.21;101306.91;5247923;28;20020;-85
2021/06/02 10:42:59;;;;;;;3.47;1.60;;;;;;;29.06;26.90;101308.09;5248531;28;20500;-85
2021/06/02 10:45:33;;;;;;;3.53;1.80;;;;;;;28.71;28.87;101311.69;5248013;28;20353;-85
2021/06/02 10:48:04;;;;;;;2.17;1.95;;;;;;;28.89;30.09;101305.63;5248305;28;20162;-85
2021/06/02 10:50:37;;;;;;;3.55;1.98;;;;;;;29.11;29.12;101311.69;5247816;28;20081;-85
2021/06/02 10:53:17;;;;;;;2.22;1.75;;;;;;;29.15;32.75;101306.44;5248438;28;20024;-85
2021/06/02 10:55:50;;;;;;;2.63;2.10;;;;;;;29.28;30.73;101311.38;5235804;28;20032;-85
2021/06/02 10:58:23;;;;;;;4.53;1.98;;;;;;;29.42;30.51;101311.63;5248158;28;20311;-85
2021/06/02 11:01:04;;;;;;;4.68;1.60;;;;;;;29.82;28.36;101309.81;5247819;28;20040;-85
2021/06/02 11:03:36;;;;;;;3.42;1.80;;;;;;;29.99;27.19;101299.22;5247888;28;20111;-86
2021/06/02 11:06:15;;;;;;;6.05;1.80;;;;;;;29.93;28.45;101301.19;5247402;28;20324;-85
2021/06/02 11:08:55;;;;;;;2.80;2.00;;;;;;;30.13;30.12;101299.47;5240024;28;20029;-85
2021/06/02 11:11:29;;;;;;;7.35;2.13;;;;;;;29.86;30.53;101305.38;5243880;28;20024;-85
2021/06/02 11:14:14;;;;;;;3.83;1.77;;;;;;;29.61;31.41;101307.16;5248023;28;20052;-85
2021/06/02 11:16:48;;;;;;;2.75;1.80;;;;;;;30.04;26.79;101295.59;5247974;28;20400;-83
2021/06/02 11:19:25;;;;;;;3.85;1.98;;;;;;;30.16;31.90;101305.22;5247848;28;20025;-85
2021/06/02 11:21:55;;;;;;;2.97;2.00;;;;;;;29.97;31.20;101304.19;5247614;28;20048;-85
2021/06/02 11:24:33;;;;;;;3.75;2.03;;;;;;;30.13;27.69;101303.06;5247480;28;20029;-85
2021/06/02 11:27:10;;;;;;;2.47;2.00;;;;;;;30.58;29.00;101297.47;5247968;28;20028;-85
2021/06/02 11:29:46;;;;;;;5.93;2.05;;;;;;;30.62;30.32;101298.53;5247032;28;20032;-85
2021/06/02 11:32:17;;;;;;;6.15;1.60;;;;;;;30.73;27.76;101310.41;5247430;28;20032;-86
2021/06/02 11:34:51;;;;;;;2.95;1.98;;;;;;;30.54;29.92;101310.22;5247222;28;20111;-86
2021/06/02 11:37:25;;;;;;;4.22;2.00;;;;;;;30.73;27.63;101302.91;5246426;28;20495;-86
2021/06/02 11:39:58;;;;;;;3.03;1.60;;;;;;;30.65;28.56;101303.50;5263270;28;20487;-83
2021/06/02 11:42:36;;;;;;;6.75;2.22;;;;;;;30.47;30.34;101299.47;5247972;28;20031;-83
2021/06/02 11:45:08;;;;;;;3.20;1.88;;;;;;;30.49;28.98;101300.03;5248267;28;20028;-83
2021/06/02 11:47:48;;;;;;;3.72;2.10;;;;;;;30.18;29.44;101297.47;5247092;28;20043;-83
2021/06/02 11:50:21;;;;;;;5.55;2.38;;;;;;;30.29;31.90;101295.47;5247192;28;20056;-83
2021/06/02 11:52:56;;;;;;;5.10;1.95;;;;;;;30.49;29.42;101300.03;5247300;28;20387;-83
2021/06/02 11:55:27;;;;;;;;;;;;;;;30.54;33.94;101304.69;5248164;28;20440;-84
2021/06/02 11:57:58;;;;;;;3.35;2.20;;;;;;;30.71;28.95;101304.31;5247660;28;19957;-83
2021/06/02 12:00:33;;;;;;;3.15;2.30;;;;;;;30.53;29.54;101303.88;5247495;28;20055;-84
2021/06/02 12:03:06;;;;;;;2.47;1.95;;;;;;;30.80;29.76;101305.34;5247840;28;20024;-83
2021/06/02 12:05:40;;;;;;;4.72;2.03;;;;;;;30.60;28.09;101295.22;5247477;28;20032;-84
2021/06/02 12:08:12;;;;;;;2.72;1.95;;;;;;;30.22;28.43;101302.44;5247299;28;20032;-83